createdAt,value
2019-02-04T00:01:33.204Z,8.60
2019-02-04T00:04:04.200Z,8.23
2019-02-04T00:06:34.225Z,8.50
2019-02-04T00:09:02.622Z,9.00
2019-02-04T00:11:35.808Z,8.07
2019-02-04T00:14:06.282Z,9.50
2019-02-04T00:16:56.836Z,8.43
2019-02-04T00:19:26.765Z,8.53
2019-02-04T00:21:55.152Z,8.27
2019-02-04T00:24:23.553Z,9.43
2019-02-04T00:26:52.194Z,11.47
2019-02-04T00:29:20.596Z,8.93
2019-02-04T00:31:49.612Z,9.20
2019-02-04T00:34:29.565Z,8.67
2019-02-04T00:36:58.194Z,9.10
2019-02-04T00:39:26.585Z,9.07
2019-02-04T00:41:54.981Z,8.83
2019-02-04T00:44:23.373Z,10.17
2019-02-04T00:46:52.558Z,8.93
2019-02-04T00:49:21.913Z,8.83
2019-02-04T00:51:50.313Z,9.13
2019-02-04T00:54:21.369Z,11.40
2019-02-04T00:56:49.759Z,11.90
2019-02-04T00:59:18.161Z,13.73
2019-02-04T01:01:49.073Z,13.10
2019-02-04T01:04:20.797Z,10.70
2019-02-04T01:06:52.137Z,11.93
2019-02-04T01:09:25.029Z,11.80
2019-02-04T01:11:53.453Z,10.87
2019-02-04T01:14:21.845Z,10.90
2019-02-04T01:17:03.207Z,9.50
2019-02-04T01:19:25.704Z,10.57
2019-02-04T01:21:54.342Z,10.90
2019-02-04T01:24:27.220Z,11.17
2019-02-04T01:27:10.444Z,11.60
2019-02-04T01:29:38.842Z,10.60
2019-02-04T01:32:09.937Z,11.80
2019-02-04T01:34:48.887Z,11.00
2019-02-04T01:37:17.225Z,11.53
2019-02-04T01:39:45.647Z,13.03
2019-02-04T01:42:20.226Z,11.97
2019-02-04T01:44:48.629Z,10.30
2019-02-04T01:47:17.092Z,10.37
2019-02-04T01:49:48.669Z,11.37
2019-02-04T01:52:17.302Z,9.17
2019-02-04T01:54:45.942Z,11.23
2019-02-04T01:57:20.701Z,9.30
2019-02-04T01:59:53.941Z,8.83
2019-02-04T02:02:28.418Z,8.60
2019-02-04T02:05:02.550Z,9.07
2019-02-04T02:07:32.237Z,9.03
2019-02-04T02:10:11.191Z,9.67
2019-02-04T02:12:42.301Z,10.13
2019-02-04T02:15:13.867Z,9.83
2019-02-04T02:17:48.998Z,10.33
2019-02-04T02:20:29.741Z,9.73
2019-02-04T02:22:59.064Z,10.50
2019-02-04T02:25:36.085Z,9.77
2019-02-04T02:28:09.457Z,9.37
2019-02-04T02:30:38.131Z,9.70
2019-02-04T02:33:07.835Z,9.83
2019-02-04T02:35:36.303Z,9.77
2019-02-04T02:38:07.200Z,9.83
2019-02-04T02:40:38.344Z,10.00
2019-02-04T02:43:06.746Z,9.57
2019-02-04T02:45:40.766Z,10.47
2019-02-04T02:48:09.189Z,10.83
2019-02-04T02:50:40.332Z,11.17
2019-02-04T02:53:10.608Z,10.83
2019-02-04T02:55:39.789Z,11.40
2019-02-04T02:58:14.749Z,12.20
2019-02-04T03:00:47.689Z,12.10
2019-02-04T03:03:18.813Z,11.50
2019-02-04T03:05:56.205Z,11.90
2019-02-04T03:08:27.898Z,12.53
2019-02-04T03:10:57.246Z,10.80
2019-02-04T03:13:30.092Z,10.13
2019-02-04T03:15:58.440Z,11.13
2019-02-04T03:18:32.769Z,10.57
2019-02-04T03:21:04.109Z,10.73
2019-02-04T03:23:35.668Z,10.07
2019-02-04T03:26:04.069Z,10.50
2019-02-04T03:28:35.363Z,8.93
2019-02-04T03:31:05.297Z,10.13
2019-02-04T03:33:40.146Z,10.00
2019-02-04T03:36:10.173Z,10.47
2019-02-04T03:38:40.213Z,9.90
2019-02-04T03:41:08.838Z,10.90
2019-02-04T03:43:37.240Z,11.03
2019-02-04T03:46:06.758Z,11.27
2019-02-04T03:48:37.634Z,10.97
2019-02-04T03:51:07.953Z,9.90
2019-02-04T03:53:39.026Z,8.87
2019-02-04T03:56:10.390Z,10.97
2019-02-04T03:58:41.322Z,11.97
2019-02-04T04:01:18.414Z,11.50
2019-02-04T04:03:49.989Z,12.63
2019-02-04T04:06:21.281Z,11.20
2019-02-04T04:08:54.498Z,11.00
2019-02-04T04:11:22.884Z,10.73
2019-02-04T04:13:51.383Z,10.00
2019-02-04T04:16:19.776Z,11.90
2019-02-04T04:18:48.194Z,13.77
2019-02-04T04:21:16.576Z,12.33
2019-02-04T04:23:48.904Z,11.23
2019-02-04T04:26:17.314Z,10.90
2019-02-04T04:28:45.702Z,10.63
2019-02-04T04:31:14.345Z,10.00
2019-02-04T04:33:45.439Z,11.07
2019-02-04T04:36:13.839Z,10.63
2019-02-04T04:38:42.901Z,11.70
2019-02-04T04:41:18.726Z,11.50
2019-02-04T04:43:47.121Z,11.20
2019-02-04T04:46:15.753Z,11.40
2019-02-04T04:48:46.989Z,11.00
2019-02-04T04:51:17.884Z,11.20
2019-02-04T04:53:49.067Z,12.60
2019-02-04T04:56:20.201Z,12.13
2019-02-04T04:58:52.949Z,11.37
2019-02-04T05:01:24.704Z,11.63
2019-02-04T05:03:56.493Z,10.90
2019-02-04T05:06:27.702Z,10.37
2019-02-04T05:08:56.861Z,12.87
2019-02-04T05:11:27.658Z,11.33
2019-02-04T05:13:56.087Z,10.20
2019-02-04T05:16:49.592Z,11.77
2019-02-04T05:19:22.368Z,11.00
2019-02-04T05:21:53.886Z,11.37
2019-02-04T05:24:28.141Z,12.10
2019-02-04T05:27:00.885Z,9.73
2019-02-04T05:29:30.533Z,11.97
2019-02-04T05:31:58.892Z,11.27
2019-02-04T05:34:30.005Z,11.37
2019-02-04T05:36:58.405Z,11.90
2019-02-04T05:39:26.793Z,10.97
2019-02-04T05:41:55.257Z,10.20
2019-02-04T05:44:28.009Z,11.03
2019-02-04T05:46:59.366Z,10.80
2019-02-04T05:49:41.289Z,11.67
2019-02-04T05:52:10.474Z,11.33
2019-02-04T05:54:39.109Z,12.17
2019-02-04T05:57:09.142Z,12.93
2019-02-04T05:59:38.821Z,14.80
2019-02-04T06:02:28.492Z,14.87
2019-02-04T06:05:02.967Z,15.10
2019-02-04T06:07:49.402Z,13.73
2019-02-04T06:10:19.732Z,11.20
2019-02-04T06:12:48.956Z,12.53
2019-02-04T06:15:21.361Z,10.77
2019-02-04T06:17:49.832Z,10.97
2019-02-04T06:20:21.628Z,13.27
2019-02-04T06:22:55.593Z,15.43
2019-02-04T06:25:24.275Z,16.70
2019-02-04T06:27:58.440Z,14.43
2019-02-04T06:30:26.843Z,16.93
2019-02-04T06:32:55.225Z,15.87
2019-02-04T06:35:23.653Z,13.80
2019-02-04T06:37:57.624Z,14.97
2019-02-04T06:40:26.024Z,15.93
2019-02-04T06:42:54.409Z,15.73
2019-02-04T06:45:27.670Z,14.97
2019-02-04T06:47:57.009Z,13.73
2019-02-04T06:50:27.038Z,13.33
2019-02-04T06:52:58.393Z,13.30
2019-02-04T06:55:34.985Z,12.03
2019-02-04T06:58:17.028Z,12.57
2019-02-04T07:00:45.545Z,13.00
2019-02-04T07:03:13.998Z,13.47
2019-02-04T07:05:43.977Z,13.03
2019-02-04T07:08:12.535Z,15.30
2019-02-04T07:10:40.922Z,14.30
2019-02-04T07:13:09.401Z,15.13
2019-02-04T07:15:39.935Z,15.27
2019-02-04T07:18:08.382Z,15.70
2019-02-04T07:20:36.769Z,16.10
2019-02-04T07:23:05.168Z,14.87
2019-02-04T07:25:36.492Z,15.33
2019-02-04T07:28:04.945Z,14.30
2019-02-04T07:30:40.191Z,15.03
2019-02-04T07:33:08.741Z,15.10
2019-02-04T07:35:38.025Z,14.93
2019-02-04T07:38:09.436Z,15.33
2019-02-04T07:40:44.250Z,15.97
2019-02-04T07:43:14.466Z,14.80
2019-02-04T07:45:54.876Z,14.30
2019-02-04T07:48:24.537Z,13.90
2019-02-04T07:50:52.945Z,13.40
2019-02-04T07:53:25.393Z,14.60
2019-02-04T07:55:55.355Z,12.70
2019-02-04T07:58:28.142Z,12.67
2019-02-04T08:01:00.928Z,12.33
2019-02-04T08:03:29.327Z,12.50
2019-02-04T08:06:00.703Z,11.87
2019-02-04T08:08:32.763Z,11.67
2019-02-04T08:11:04.211Z,11.90
2019-02-04T08:13:32.788Z,11.60
2019-02-04T08:16:01.192Z,11.50
2019-02-04T08:18:35.789Z,11.17
2019-02-04T08:21:05.911Z,11.20
2019-02-04T08:23:35.929Z,10.03
2019-02-04T08:26:04.913Z,9.70
2019-02-04T08:28:36.397Z,9.57
2019-02-04T08:31:05.786Z,9.60
2019-02-04T08:33:39.604Z,9.30
2019-02-04T08:36:08.750Z,9.33
2019-02-04T08:38:37.137Z,9.20
2019-02-04T08:41:05.777Z,9.00
2019-02-04T08:43:37.121Z,8.97
2019-02-04T08:46:05.521Z,9.90
2019-02-04T08:48:42.903Z,9.77
2019-02-04T08:51:12.958Z,9.10
2019-02-04T08:53:41.727Z,9.40
2019-02-04T08:56:13.120Z,9.57
2019-02-04T08:58:45.909Z,9.13
2019-02-04T09:01:14.522Z,8.33
2019-02-04T09:03:49.493Z,8.33
2019-02-04T09:06:17.873Z,8.23
2019-02-04T09:08:46.305Z,8.10
2019-02-04T09:11:15.468Z,8.80
2019-02-04T09:13:51.217Z,8.30
2019-02-04T09:16:20.729Z,9.27
2019-02-04T09:18:50.987Z,9.37
2019-02-04T09:21:19.469Z,8.80
2019-02-04T09:23:47.848Z,9.33
2019-02-04T09:26:18.946Z,9.77
2019-02-04T09:28:52.991Z,9.30
2019-02-04T09:31:21.389Z,8.33
2019-02-04T09:33:49.781Z,9.10
2019-02-04T09:36:21.105Z,9.10
2019-02-04T09:38:52.864Z,8.97
2019-02-04T09:41:21.263Z,8.90
2019-02-04T09:43:49.640Z,7.30
2019-02-04T09:46:19.747Z,8.30
2019-02-04T09:48:51.224Z,8.77
2019-02-04T09:51:21.262Z,9.20
2019-02-04T09:53:52.308Z,8.33
2019-02-04T09:56:22.238Z,9.07
2019-02-04T09:58:56.381Z,8.37
2019-02-04T10:01:27.769Z,8.57
2019-02-04T10:03:56.166Z,11.27
2019-02-04T10:06:24.637Z,12.20
2019-02-04T10:08:58.564Z,13.40
2019-02-04T10:11:27.299Z,13.00
2019-02-04T10:13:58.629Z,11.83
2019-02-04T10:16:27.056Z,12.20
2019-02-04T10:19:01.719Z,10.93
2019-02-04T10:21:30.196Z,10.93
2019-02-04T10:24:00.209Z,10.80
2019-02-04T10:26:33.031Z,10.50
2019-02-04T10:29:07.302Z,10.40
2019-02-04T10:31:38.744Z,10.03
2019-02-04T10:34:09.010Z,10.50
2019-02-04T10:36:45.409Z,10.07
2019-02-04T10:39:13.825Z,10.40
2019-02-04T10:41:45.162Z,9.60
2019-02-04T10:44:17.307Z,9.93
2019-02-04T10:46:45.773Z,10.20
2019-02-04T10:49:15.214Z,9.90
2019-02-04T10:51:43.650Z,10.23
2019-02-04T10:54:13.454Z,10.63
2019-02-04T10:56:42.976Z,11.43
2019-02-04T10:59:11.362Z,11.17
2019-02-04T11:01:39.815Z,11.33
2019-02-04T11:04:08.465Z,10.27
2019-02-04T11:06:36.853Z,11.13
2019-02-04T11:09:09.602Z,11.10
2019-02-04T11:11:39.175Z,10.50
2019-02-04T11:14:10.949Z,10.90
2019-02-04T11:16:40.833Z,11.50
2019-02-04T11:19:10.153Z,10.77
2019-02-04T11:21:38.573Z,11.80
2019-02-04T11:24:07.704Z,11.73
2019-02-04T11:26:36.160Z,11.93
2019-02-04T11:29:06.899Z,11.83
2019-02-04T11:31:36.218Z,12.00
2019-02-04T11:34:06.114Z,11.43
2019-02-04T11:36:34.631Z,13.03
2019-02-04T11:39:03.041Z,12.33
2019-02-04T11:41:31.536Z,12.07
2019-02-04T11:44:00.038Z,12.43
2019-02-04T11:46:28.393Z,12.67
2019-02-04T11:48:57.674Z,12.60
2019-02-04T11:51:26.068Z,12.50
2019-02-04T11:53:54.472Z,12.73
2019-02-04T11:56:26.061Z,12.13
2019-02-04T11:58:54.456Z,11.77
2019-02-04T12:01:22.843Z,11.80
2019-02-04T12:03:51.914Z,11.70
2019-02-04T12:06:20.306Z,11.73
2019-02-04T12:08:48.951Z,11.87
2019-02-04T12:11:18.476Z,11.60
2019-02-04T12:13:47.267Z,11.93
2019-02-04T12:16:16.465Z,11.37
2019-02-04T12:18:45.881Z,11.17
2019-02-04T12:21:21.559Z,11.13
2019-02-04T12:23:48.483Z,11.53
2019-02-04T12:26:17.174Z,10.43
2019-02-04T12:28:45.804Z,10.20
2019-02-04T12:31:14.194Z,9.17
2019-02-04T12:33:43.665Z,10.43
2019-02-04T12:36:12.054Z,10.50
2019-02-04T12:38:40.456Z,10.40
2019-02-04T12:41:08.855Z,10.00
2019-02-04T12:43:37.248Z,9.50
2019-02-04T12:46:07.161Z,10.33
2019-02-04T12:48:35.938Z,10.30
2019-02-04T12:51:05.161Z,10.07
2019-02-04T12:53:37.021Z,10.77
2019-02-04T12:56:05.487Z,10.43
2019-02-04T12:58:34.923Z,11.67
2019-02-04T13:01:05.740Z,11.07
2019-02-04T13:03:34.128Z,10.70
2019-02-04T13:06:03.914Z,11.13
2019-02-04T13:08:32.338Z,9.97
2019-02-04T13:11:00.729Z,10.90
2019-02-04T13:13:29.358Z,10.00
2019-02-04T13:15:57.757Z,10.70
2019-02-04T13:18:26.921Z,10.47
2019-02-04T13:20:55.309Z,9.10
2019-02-04T13:23:23.723Z,8.43
2019-02-04T13:25:52.108Z,8.47
2019-02-04T13:28:21.321Z,8.00
2019-02-04T13:30:49.907Z,8.13
2019-02-04T13:33:21.475Z,8.63
2019-02-04T13:35:49.865Z,8.60
2019-02-04T13:38:18.277Z,8.73
2019-02-04T13:40:46.917Z,8.87
2019-02-04T13:43:15.446Z,8.53
2019-02-04T13:45:45.109Z,7.57
2019-02-04T13:48:15.657Z,8.43
2019-02-04T13:50:44.058Z,8.10
2019-02-04T13:53:12.526Z,8.30
2019-02-04T13:55:41.741Z,7.33
2019-02-04T13:58:11.673Z,7.40
2019-02-04T14:00:40.077Z,8.27
2019-02-04T14:03:10.891Z,8.23
2019-02-04T14:05:39.270Z,7.83
2019-02-04T14:08:08.329Z,6.87
2019-02-04T14:10:39.795Z,5.77
2019-02-04T14:13:09.734Z,6.10
2019-02-04T14:15:43.994Z,6.40
2019-02-04T14:18:12.380Z,6.23
2019-02-04T14:20:41.013Z,5.67
2019-02-04T14:23:21.049Z,4.60
2019-02-04T14:25:49.451Z,6.43
2019-02-04T14:28:19.290Z,5.40
2019-02-04T14:30:47.695Z,5.80
2019-02-04T14:33:16.138Z,5.73
2019-02-04T14:35:47.222Z,5.13
2019-02-04T14:38:15.630Z,5.87
2019-02-04T14:40:44.015Z,6.10
2019-02-04T14:43:15.945Z,5.67
2019-02-04T14:45:56.414Z,6.23
2019-02-04T14:48:49.301Z,5.90
2019-02-04T14:51:39.319Z,5.53
2019-02-04T14:54:38.252Z,5.80
2019-02-04T14:57:15.617Z,5.60
2019-02-04T14:59:53.152Z,4.97
2019-02-04T15:02:45.496Z,5.23
2019-02-04T15:05:25.769Z,5.13
2019-02-04T15:08:11.545Z,5.57
2019-02-04T15:11:04.137Z,5.90
2019-02-04T15:13:41.333Z,5.47
2019-02-04T15:16:19.494Z,5.17
2019-02-04T15:19:24.550Z,5.60
2019-02-04T15:21:59.821Z,6.00
2019-02-04T15:25:12.859Z,5.27
2019-02-04T15:27:46.289Z,6.00
2019-02-04T15:30:41.753Z,5.70
2019-02-04T15:33:29.690Z,5.20
2019-02-04T15:36:16.193Z,5.20
2019-02-04T15:38:55.418Z,5.23
2019-02-04T15:41:35.485Z,5.10
2019-02-04T15:44:21.718Z,5.33
2019-02-04T15:46:56.079Z,5.23
2019-02-04T15:49:36.418Z,5.80
2019-02-04T15:52:05.065Z,5.50
2019-02-04T15:54:36.253Z,5.20
2019-02-04T15:57:06.559Z,5.80
2019-02-04T15:59:36.761Z,5.00
2019-02-04T16:02:05.256Z,5.03
2019-02-04T16:04:36.005Z,5.23
2019-02-04T16:07:06.925Z,4.93
2019-02-04T16:09:35.387Z,4.50
2019-02-04T16:12:03.783Z,4.23
2019-02-04T16:14:41.837Z,4.37
2019-02-04T16:17:11.526Z,4.73
2019-02-04T16:19:43.513Z,4.43
2019-02-04T16:22:12.041Z,4.67
2019-02-04T16:24:41.172Z,4.60
2019-02-04T16:27:16.880Z,4.30
2019-02-04T16:29:52.582Z,4.40
2019-02-04T16:32:21.864Z,4.43
2019-02-04T16:34:50.254Z,4.67
2019-02-04T16:37:20.273Z,4.40
2019-02-04T16:39:52.501Z,4.10
2019-02-04T16:42:25.297Z,4.00
2019-02-04T16:44:59.475Z,4.73
2019-02-04T16:47:31.072Z,4.43
2019-02-04T16:50:02.377Z,4.23
2019-02-04T16:52:33.576Z,4.27
2019-02-04T16:55:01.966Z,5.47
2019-02-04T16:57:33.010Z,4.50
2019-02-04T17:00:01.432Z,5.00
2019-02-04T17:02:35.841Z,5.10
2019-02-04T17:05:10.182Z,4.80
2019-02-04T17:07:38.674Z,5.13
2019-02-04T17:10:10.316Z,4.97
2019-02-04T17:12:38.777Z,5.23
2019-02-04T17:15:10.868Z,5.23
2019-02-04T17:17:39.248Z,4.60
2019-02-04T17:20:16.735Z,4.87
2019-02-04T17:22:48.426Z,5.60
2019-02-04T17:25:17.167Z,5.17
2019-02-04T17:27:45.563Z,4.60
2019-02-04T17:30:17.029Z,4.90
2019-02-04T17:32:45.424Z,5.20
2019-02-04T17:35:17.834Z,5.23
2019-02-04T17:37:45.009Z,5.60
2019-02-04T17:40:21.640Z,5.97
2019-02-04T17:42:52.694Z,5.40
2019-02-04T17:45:21.833Z,5.20
2019-02-04T17:47:53.355Z,5.40
2019-02-04T17:50:22.576Z,4.83
2019-02-04T17:52:54.098Z,5.23
2019-02-04T17:55:31.986Z,6.20
2019-02-04T17:58:02.026Z,5.47
2019-02-04T18:00:37.742Z,6.17
2019-02-04T18:03:10.008Z,6.17
2019-02-04T18:05:38.696Z,6.27
2019-02-04T18:08:10.526Z,5.90
2019-02-04T18:10:47.025Z,5.80
2019-02-04T18:13:18.361Z,6.77
2019-02-04T18:15:46.773Z,6.67
2019-02-04T18:18:20.849Z,5.57
2019-02-04T18:20:51.892Z,6.23
2019-02-04T18:23:22.232Z,6.73
2019-02-04T18:25:50.689Z,6.73
2019-02-04T18:28:23.553Z,6.33
2019-02-04T18:30:52.689Z,6.80
2019-02-04T18:33:22.717Z,6.50
2019-02-04T18:35:51.125Z,6.30
2019-02-04T18:38:19.514Z,6.20
2019-02-04T18:40:54.426Z,7.47
2019-02-04T18:43:23.245Z,7.80
2019-02-04T18:45:51.631Z,8.03
2019-02-04T18:48:20.048Z,7.50
2019-02-04T18:50:55.063Z,6.80
2019-02-04T18:53:24.134Z,6.17
2019-02-04T18:55:57.989Z,5.47
2019-02-04T18:58:26.669Z,5.30
2019-02-04T19:00:55.045Z,5.43
2019-02-04T19:03:26.120Z,4.83
2019-02-04T19:05:55.281Z,5.13
2019-02-04T19:08:23.672Z,4.87
2019-02-04T19:10:52.069Z,4.70
2019-02-04T19:13:21.361Z,5.47
2019-02-04T19:15:51.434Z,5.33
2019-02-04T19:18:19.877Z,6.27
2019-02-04T19:20:48.273Z,7.03
2019-02-04T19:23:16.661Z,6.60
2019-02-04T19:25:45.096Z,7.00
2019-02-04T19:28:13.505Z,6.23
2019-02-04T19:30:50.679Z,6.47
2019-02-04T19:33:20.740Z,6.33
2019-02-04T19:35:49.205Z,7.07
2019-02-04T19:38:17.609Z,7.30
2019-02-04T19:40:46.016Z,7.57
2019-02-04T19:43:14.781Z,7.20
2019-02-04T19:45:43.185Z,7.13
2019-02-04T19:48:11.591Z,7.00
2019-02-04T19:50:39.977Z,7.00
2019-02-04T19:53:08.373Z,7.40
2019-02-04T19:55:37.999Z,7.27
2019-02-04T19:58:09.069Z,6.83
2019-02-04T20:00:37.485Z,6.20
2019-02-04T20:03:07.009Z,7.00
2019-02-04T20:05:36.181Z,7.70
2019-02-04T20:08:07.298Z,7.03
2019-02-04T20:10:56.558Z,7.23
2019-02-04T20:13:24.945Z,7.93
2019-02-04T20:15:55.660Z,8.47
2019-02-04T20:18:24.055Z,11.00
2019-02-04T20:20:52.437Z,10.97
2019-02-04T20:23:22.471Z,14.43
2019-02-04T20:25:50.858Z,17.03
2019-02-04T20:28:19.261Z,14.27
2019-02-04T20:30:50.704Z,15.73
2019-02-04T20:33:19.174Z,14.17
2019-02-04T20:35:47.564Z,14.07
2019-02-04T20:38:15.972Z,12.63
2019-02-04T20:40:48.363Z,13.23
2019-02-04T20:43:17.330Z,12.13
2019-02-04T20:45:45.712Z,12.10
2019-02-04T20:48:15.099Z,10.70
2019-02-04T20:50:49.021Z,10.03
2019-02-04T20:53:19.061Z,10.67
2019-02-04T20:55:49.087Z,9.47
2019-02-04T20:58:17.475Z,8.70
2019-02-04T21:00:46.239Z,9.03
2019-02-04T21:03:15.256Z,9.37
2019-02-04T21:05:43.717Z,8.50
2019-02-04T21:08:15.055Z,8.00
2019-02-04T21:10:43.851Z,6.57
2019-02-04T21:13:19.595Z,6.23
2019-02-04T21:15:47.990Z,7.03
2019-02-04T21:18:18.096Z,7.10
2019-02-04T21:20:49.333Z,7.47
2019-02-04T21:23:18.604Z,7.80
2019-02-04T21:25:51.521Z,7.13
2019-02-04T21:28:29.040Z,7.10
2019-02-04T21:31:00.367Z,6.70
2019-02-04T21:33:28.752Z,7.57
2019-02-04T21:35:57.143Z,7.20
2019-02-04T21:38:25.793Z,8.03
2019-02-04T21:40:55.817Z,7.47
2019-02-04T21:43:24.209Z,7.33
2019-02-04T21:45:55.541Z,8.23
2019-02-04T21:48:29.783Z,8.20
2019-02-04T21:50:58.177Z,16.13
2019-02-04T21:53:31.218Z,12.37
2019-02-04T21:56:00.127Z,9.77
2019-02-04T21:58:29.518Z,7.50
2019-02-04T22:00:58.125Z,9.20
2019-02-04T22:03:29.658Z,7.90
2019-02-04T22:05:58.061Z,7.87
2019-02-04T22:08:28.088Z,7.37
2019-02-04T22:11:00.226Z,7.63
2019-02-04T22:13:31.529Z,8.07
2019-02-04T22:16:02.666Z,6.93
2019-02-04T22:18:33.746Z,7.63
2019-02-04T22:21:03.773Z,7.13
2019-02-04T22:23:39.506Z,8.33
2019-02-04T22:26:15.208Z,8.23
2019-02-04T22:28:43.609Z,7.50
2019-02-04T22:31:13.628Z,7.90
2019-02-04T22:33:44.945Z,8.87
2019-02-04T22:36:14.969Z,8.90
2019-02-04T22:38:46.080Z,8.80
2019-02-04T22:41:14.461Z,8.50
2019-02-04T22:43:52.677Z,8.00
2019-02-04T22:46:21.109Z,8.70
2019-02-04T22:48:49.504Z,8.10
2019-02-04T22:51:17.949Z,8.03
2019-02-04T22:53:47.165Z,8.17
2019-02-04T22:56:19.969Z,7.63
2019-02-04T22:58:52.988Z,8.57
2019-02-04T23:01:36.041Z,8.43
2019-02-04T23:04:04.020Z,7.57
2019-02-04T23:06:38.128Z,8.20
2019-02-04T23:09:19.282Z,9.33
2019-02-04T23:11:47.719Z,8.33
2019-02-04T23:14:21.362Z,8.33
2019-02-04T23:16:52.520Z,8.17
2019-02-04T23:19:24.522Z,8.00
2019-02-04T23:21:58.630Z,7.90
2019-02-04T23:24:27.018Z,7.87
2019-02-04T23:26:55.502Z,8.40
2019-02-04T23:29:27.004Z,8.47
2019-02-04T23:31:58.134Z,8.20
2019-02-04T23:34:31.100Z,9.00
2019-02-04T23:37:01.127Z,8.73
2019-02-04T23:39:29.517Z,7.50
2019-02-04T23:42:02.625Z,8.87
2019-02-04T23:44:33.604Z,8.53
2019-02-04T23:47:02.014Z,8.10
2019-02-04T23:49:30.510Z,8.30
2019-02-04T23:51:58.898Z,8.97
2019-02-04T23:54:27.532Z,8.90
2019-02-04T23:56:58.916Z,9.67
2019-02-04T23:59:28.185Z,9.53
